sensor_id;sensor_type;location;lat;lon;timestamp;temperature;humidity
52656;SHT85;35474;51.032;6.998;2022-10-20T00:00:33;11.30;85.45
52656;SHT85;35474;51.032;6.998;2022-10-20T00:03:00;11.31;85.14
52656;SHT85;35474;51.032;6.998;2022-10-20T00:05:26;11.27;85.35
52656;SHT85;35474;51.032;6.998;2022-10-20T00:07:53;11.28;85.34
52656;SHT85;35474;51.032;6.998;2022-10-20T00:10:19;11.18;85.67
52656;SHT85;35474;51.032;6.998;2022-10-20T00:12:46;11.17;85.72
52656;SHT85;35474;51.032;6.998;2022-10-20T00:15:12;11.11;85.97
52656;SHT85;35474;51.032;6.998;2022-10-20T00:17:39;11.07;86.05
52656;SHT85;35474;51.032;6.998;2022-10-20T00:20:05;11.10;85.86
52656;SHT85;35474;51.032;6.998;2022-10-20T00:22:32;11.00;86.18
52656;SHT85;35474;51.032;6.998;2022-10-20T00:24:59;10.94;86.31
52656;SHT85;35474;51.032;6.998;2022-10-20T00:27:26;10.96;86.31
52656;SHT85;35474;51.032;6.998;2022-10-20T00:29:52;11.10;86.01
52656;SHT85;35474;51.032;6.998;2022-10-20T00:32:19;11.14;85.37
52656;SHT85;35474;51.032;6.998;2022-10-20T00:34:45;11.20;85.46
52656;SHT85;35474;51.032;6.998;2022-10-20T00:37:13;11.26;85.01
52656;SHT85;35474;51.032;6.998;2022-10-20T00:39:39;11.23;84.87
52656;SHT85;35474;51.032;6.998;2022-10-20T00:42:06;11.18;85.03
52656;SHT85;35474;51.032;6.998;2022-10-20T00:44:46;11.21;85.01
52656;SHT85;35474;51.032;6.998;2022-10-20T00:47:41;11.21;84.96
52656;SHT85;35474;51.032;6.998;2022-10-20T00:50:13;11.20;85.17
52656;SHT85;35474;51.032;6.998;2022-10-20T00:52:43;11.18;85.00
52656;SHT85;35474;51.032;6.998;2022-10-20T00:55:12;11.20;84.93
52656;SHT85;35474;51.032;6.998;2022-10-20T00:57:43;11.16;84.95
52656;SHT85;35474;51.032;6.998;2022-10-20T01:00:14;11.21;84.84
52656;SHT85;35474;51.032;6.998;2022-10-20T01:02:41;11.21;84.68
52656;SHT85;35474;51.032;6.998;2022-10-20T01:05:08;11.21;84.63
52656;SHT85;35474;51.032;6.998;2022-10-20T01:07:35;11.08;85.02
52656;SHT85;35474;51.032;6.998;2022-10-20T01:10:02;11.10;84.98
52656;SHT85;35474;51.032;6.998;2022-10-20T01:12:35;11.14;84.79
52656;SHT85;35474;51.032;6.998;2022-10-20T01:15:26;11.08;84.95
52656;SHT85;35474;51.032;6.998;2022-10-20T01:18:06;11.16;84.73
52656;SHT85;35474;51.032;6.998;2022-10-20T01:36:59;11.26;83.81
52656;SHT85;35474;51.032;6.998;2022-10-20T01:39:37;11.32;83.41
52656;SHT85;35474;51.032;6.998;2022-10-20T01:42:15;11.38;83.44
52656;SHT85;35474;51.032;6.998;2022-10-20T01:44:46;11.42;83.08
52656;SHT85;35474;51.032;6.998;2022-10-20T01:47:14;11.39;83.10
52656;SHT85;35474;51.032;6.998;2022-10-20T01:49:42;11.47;82.85
52656;SHT85;35474;51.032;6.998;2022-10-20T01:52:11;11.48;82.73
52656;SHT85;35474;51.032;6.998;2022-10-20T01:54:38;11.52;82.60
52656;SHT85;35474;51.032;6.998;2022-10-20T02:00:09;11.41;82.90
52656;SHT85;35474;51.032;6.998;2022-10-20T02:05:32;11.41;82.67
52656;SHT85;35474;51.032;6.998;2022-10-20T02:08:22;11.41;82.53
52656;SHT85;35474;51.032;6.998;2022-10-20T02:10:56;11.37;82.87
52656;SHT85;35474;51.032;6.998;2022-10-20T02:13:27;11.42;82.73
52656;SHT85;35474;51.032;6.998;2022-10-20T02:15:56;11.37;82.75
52656;SHT85;35474;51.032;6.998;2022-10-20T02:18:28;11.30;82.91
52656;SHT85;35474;51.032;6.998;2022-10-20T02:20:59;11.30;82.83
52656;SHT85;35474;51.032;6.998;2022-10-20T02:23:28;11.35;82.84
52656;SHT85;35474;51.032;6.998;2022-10-20T02:26:03;11.42;82.62
52656;SHT85;35474;51.032;6.998;2022-10-20T02:28:32;11.38;82.86
52656;SHT85;35474;51.032;6.998;2022-10-20T02:31:01;11.38;82.63
52656;SHT85;35474;51.032;6.998;2022-10-20T02:33:29;11.37;82.76
52656;SHT85;35474;51.032;6.998;2022-10-20T02:35:57;11.32;82.83
52656;SHT85;35474;51.032;6.998;2022-10-20T02:38:24;11.28;83.00
52656;SHT85;35474;51.032;6.998;2022-10-20T02:40:51;11.34;82.87
52656;SHT85;35474;51.032;6.998;2022-10-20T02:43:17;11.35;82.61
52656;SHT85;35474;51.032;6.998;2022-10-20T02:45:44;11.41;82.56
52656;SHT85;35474;51.032;6.998;2022-10-20T02:48:10;11.41;82.54
52656;SHT85;35474;51.032;6.998;2022-10-20T02:50:37;11.37;82.69
52656;SHT85;35474;51.032;6.998;2022-10-20T02:53:04;11.32;82.83
52656;SHT85;35474;51.032;6.998;2022-10-20T02:55:30;11.39;82.81
52656;SHT85;35474;51.032;6.998;2022-10-20T02:57:58;11.41;82.56
52656;SHT85;35474;51.032;6.998;2022-10-20T03:00:24;11.34;82.67
52656;SHT85;35474;51.032;6.998;2022-10-20T03:02:54;11.32;82.80
52656;SHT85;35474;51.032;6.998;2022-10-20T03:05:21;11.38;82.79
52656;SHT85;35474;51.032;6.998;2022-10-20T03:07:47;11.38;82.71
52656;SHT85;35474;51.032;6.998;2022-10-20T03:10:14;11.42;82.32
52656;SHT85;35474;51.032;6.998;2022-10-20T03:12:40;11.45;82.33
52656;SHT85;35474;51.032;6.998;2022-10-20T03:15:07;11.49;82.16
52656;SHT85;35474;51.032;6.998;2022-10-20T03:17:33;11.52;81.89
52656;SHT85;35474;51.032;6.998;2022-10-20T03:20:01;11.63;81.46
52656;SHT85;35474;51.032;6.998;2022-10-20T03:22:27;11.57;81.49
52656;SHT85;35474;51.032;6.998;2022-10-20T03:24:55;11.58;81.54
52656;SHT85;35474;51.032;6.998;2022-10-20T03:27:21;11.49;81.85
52656;SHT85;35474;51.032;6.998;2022-10-20T03:29:48;11.49;82.06
52656;SHT85;35474;51.032;6.998;2022-10-20T03:32:14;11.63;81.44
52656;SHT85;35474;51.032;6.998;2022-10-20T03:34:41;11.58;81.57
52656;SHT85;35474;51.032;6.998;2022-10-20T03:37:07;11.52;81.75
52656;SHT85;35474;51.032;6.998;2022-10-20T03:39:33;11.59;81.48
52656;SHT85;35474;51.032;6.998;2022-10-20T03:42:00;11.65;81.16
52656;SHT85;35474;51.032;6.998;2022-10-20T03:44:26;11.61;81.36
52656;SHT85;35474;51.032;6.998;2022-10-20T03:46:53;11.58;81.37
52656;SHT85;35474;51.032;6.998;2022-10-20T03:49:19;11.63;81.36
52656;SHT85;35474;51.032;6.998;2022-10-20T03:51:45;11.65;81.19
52656;SHT85;35474;51.032;6.998;2022-10-20T03:54:12;11.63;81.22
52656;SHT85;35474;51.032;6.998;2022-10-20T03:56:39;11.59;81.25
52656;SHT85;35474;51.032;6.998;2022-10-20T03:59:05;11.59;81.28
52656;SHT85;35474;51.032;6.998;2022-10-20T04:01:32;11.59;81.25
52656;SHT85;35474;51.032;6.998;2022-10-20T04:04:00;11.57;81.17
52656;SHT85;35474;51.032;6.998;2022-10-20T04:06:26;11.61;81.14
52656;SHT85;35474;51.032;6.998;2022-10-20T04:08:53;11.63;81.02
52656;SHT85;35474;51.032;6.998;2022-10-20T04:11:19;11.65;80.84
52656;SHT85;35474;51.032;6.998;2022-10-20T04:13:46;11.61;81.05
52656;SHT85;35474;51.032;6.998;2022-10-20T04:16:13;11.62;81.04
52656;SHT85;35474;51.032;6.998;2022-10-20T04:18:39;11.66;80.87
52656;SHT85;35474;51.032;6.998;2022-10-20T04:21:06;11.68;80.80
52656;SHT85;35474;51.032;6.998;2022-10-20T04:23:32;11.65;80.84
52656;SHT85;35474;51.032;6.998;2022-10-20T04:25:59;11.59;80.86
52656;SHT85;35474;51.032;6.998;2022-10-20T04:28:25;11.63;80.74
52656;SHT85;35474;51.032;6.998;2022-10-20T04:30:54;11.61;80.88
52656;SHT85;35474;51.032;6.998;2022-10-20T04:33:24;11.61;81.01
52656;SHT85;35474;51.032;6.998;2022-10-20T04:35:57;11.62;80.80
52656;SHT85;35474;51.032;6.998;2022-10-20T04:38:24;11.68;80.53
52656;SHT85;35474;51.032;6.998;2022-10-20T04:40:54;11.63;80.78
52656;SHT85;35474;51.032;6.998;2022-10-20T04:43:29;11.59;80.94
52656;SHT85;35474;51.032;6.998;2022-10-20T04:46:04;11.65;80.71
52656;SHT85;35474;51.032;6.998;2022-10-20T04:48:34;11.66;80.67
52656;SHT85;35474;51.032;6.998;2022-10-20T04:51:05;11.68;80.52
52656;SHT85;35474;51.032;6.998;2022-10-20T04:53:33;11.68;80.71
52656;SHT85;35474;51.032;6.998;2022-10-20T04:56:01;11.70;80.44
52656;SHT85;35474;51.032;6.998;2022-10-20T04:58:28;11.69;80.48
52656;SHT85;35474;51.032;6.998;2022-10-20T05:00:58;11.78;80.04
52656;SHT85;35474;51.032;6.998;2022-10-20T05:03:26;11.78;80.04
52656;SHT85;35474;51.032;6.998;2022-10-20T05:05:52;11.79;79.91
52656;SHT85;35474;51.032;6.998;2022-10-20T05:08:19;11.75;80.20
52656;SHT85;35474;51.032;6.998;2022-10-20T05:10:46;11.76;80.31
52656;SHT85;35474;51.032;6.998;2022-10-20T05:13:12;11.76;80.17
52656;SHT85;35474;51.032;6.998;2022-10-20T05:15:39;11.69;80.32
52656;SHT85;35474;51.032;6.998;2022-10-20T05:18:05;11.72;80.29
52656;SHT85;35474;51.032;6.998;2022-10-20T05:20:31;11.75;80.01
52656;SHT85;35474;51.032;6.998;2022-10-20T05:23:06;11.76;80.04
52656;SHT85;35474;51.032;6.998;2022-10-20T05:25:34;11.70;80.05
52656;SHT85;35474;51.032;6.998;2022-10-20T05:28:02;11.75;80.03
52656;SHT85;35474;51.032;6.998;2022-10-20T05:30:30;11.68;80.23
52656;SHT85;35474;51.032;6.998;2022-10-20T05:32:56;11.70;80.39
52656;SHT85;35474;51.032;6.998;2022-10-20T05:35:23;11.66;80.29
52656;SHT85;35474;51.032;6.998;2022-10-20T05:37:49;11.65;80.38
52656;SHT85;35474;51.032;6.998;2022-10-20T05:40:16;11.70;80.05
52656;SHT85;35474;51.032;6.998;2022-10-20T05:42:42;11.69;80.15
52656;SHT85;35474;51.032;6.998;2022-10-20T05:45:09;11.72;80.07
52656;SHT85;35474;51.032;6.998;2022-10-20T05:47:36;11.70;79.97
52656;SHT85;35474;51.032;6.998;2022-10-20T05:50:03;11.69;80.09
52656;SHT85;35474;51.032;6.998;2022-10-20T05:52:30;11.79;79.87
52656;SHT85;35474;51.032;6.998;2022-10-20T05:54:56;11.79;79.73
52656;SHT85;35474;51.032;6.998;2022-10-20T05:57:24;11.81;79.72
52656;SHT85;35474;51.032;6.998;2022-10-20T05:59:50;11.82;79.58
52656;SHT85;35474;51.032;6.998;2022-10-20T06:02:17;11.82;79.58
52656;SHT85;35474;51.032;6.998;2022-10-20T06:04:44;11.83;79.45
52656;SHT85;35474;51.032;6.998;2022-10-20T06:07:11;11.81;79.60
52656;SHT85;35474;51.032;6.998;2022-10-20T06:09:38;11.78;79.81
52656;SHT85;35474;51.032;6.998;2022-10-20T06:12:05;11.82;79.63
52656;SHT85;35474;51.032;6.998;2022-10-20T06:14:37;11.81;79.61
52656;SHT85;35474;51.032;6.998;2022-10-20T06:17:04;11.81;79.89
52656;SHT85;35474;51.032;6.998;2022-10-20T06:19:30;11.78;80.00
52656;SHT85;35474;51.032;6.998;2022-10-20T06:21:57;11.82;79.87
52656;SHT85;35474;51.032;6.998;2022-10-20T06:24:31;11.81;79.96
52656;SHT85;35474;51.032;6.998;2022-10-20T06:26:58;11.86;79.80
52656;SHT85;35474;51.032;6.998;2022-10-20T06:32:33;11.86;79.93
52656;SHT85;35474;51.032;6.998;2022-10-20T06:35:00;11.90;79.90
52656;SHT85;35474;51.032;6.998;2022-10-20T06:37:26;11.99;79.80
52656;SHT85;35474;51.032;6.998;2022-10-20T06:39:53;11.99;79.78
52656;SHT85;35474;51.032;6.998;2022-10-20T06:42:19;12.06;79.61
52656;SHT85;35474;51.032;6.998;2022-10-20T06:44:45;12.10;79.50
52656;SHT85;35474;51.032;6.998;2022-10-20T06:47:12;12.09;79.44
52656;SHT85;35474;51.032;6.998;2022-10-20T06:49:38;12.13;79.50
52656;SHT85;35474;51.032;6.998;2022-10-20T06:52:05;12.12;79.53
52656;SHT85;35474;51.032;6.998;2022-10-20T06:54:31;12.17;79.55
52656;SHT85;35474;51.032;6.998;2022-10-20T06:56:58;12.18;79.46
52656;SHT85;35474;51.032;6.998;2022-10-20T06:59:24;12.20;79.48
52656;SHT85;35474;51.032;6.998;2022-10-20T07:01:50;12.27;79.37
52656;SHT85;35474;51.032;6.998;2022-10-20T07:04:18;12.28;79.28
52656;SHT85;35474;51.032;6.998;2022-10-20T07:06:44;12.31;79.32
52656;SHT85;35474;51.032;6.998;2022-10-20T07:09:14;12.36;79.12
52656;SHT85;35474;51.032;6.998;2022-10-20T07:11:43;12.38;79.19
52656;SHT85;35474;51.032;6.998;2022-10-20T07:14:10;12.41;79.27
52656;SHT85;35474;51.032;6.998;2022-10-20T07:16:38;12.43;79.20
52656;SHT85;35474;51.032;6.998;2022-10-20T07:19:05;12.47;79.12
52656;SHT85;35474;51.032;6.998;2022-10-20T07:21:32;12.53;79.02
52656;SHT85;35474;51.032;6.998;2022-10-20T07:24:03;12.57;78.82
52656;SHT85;35474;51.032;6.998;2022-10-20T07:26:31;12.58;78.92
52656;SHT85;35474;51.032;6.998;2022-10-20T07:29:00;12.57;79.06
52656;SHT85;35474;51.032;6.998;2022-10-20T07:31:47;12.60;78.98
52656;SHT85;35474;51.032;6.998;2022-10-20T07:34:14;12.61;78.90
52656;SHT85;35474;51.032;6.998;2022-10-20T07:36:52;12.61;79.10
52656;SHT85;35474;51.032;6.998;2022-10-20T07:39:19;12.72;78.85
52656;SHT85;35474;51.032;6.998;2022-10-20T07:41:45;12.74;78.68
52656;SHT85;35474;51.032;6.998;2022-10-20T07:44:13;12.75;78.72
52656;SHT85;35474;51.032;6.998;2022-10-20T07:46:40;12.76;78.78
52656;SHT85;35474;51.032;6.998;2022-10-20T07:49:06;12.76;78.77
52656;SHT85;35474;51.032;6.998;2022-10-20T07:51:53;12.81;78.61
52656;SHT85;35474;51.032;6.998;2022-10-20T07:54:20;12.88;78.72
52656;SHT85;35474;51.032;6.998;2022-10-20T07:56:46;12.91;78.48
52656;SHT85;35474;51.032;6.998;2022-10-20T07:59:14;12.92;78.38
52656;SHT85;35474;51.032;6.998;2022-10-20T08:01:40;12.98;78.38
52656;SHT85;35474;51.032;6.998;2022-10-20T08:04:07;12.98;78.26
52656;SHT85;35474;51.032;6.998;2022-10-20T08:06:33;13.06;78.27
52656;SHT85;35474;51.032;6.998;2022-10-20T08:09:00;13.09;78.38
52656;SHT85;35474;51.032;6.998;2022-10-20T08:11:27;13.22;78.11
52656;SHT85;35474;51.032;6.998;2022-10-20T08:13:53;13.25;77.77
52656;SHT85;35474;51.032;6.998;2022-10-20T08:16:20;13.33;77.41
52656;SHT85;35474;51.032;6.998;2022-10-20T08:18:54;13.36;77.53
52656;SHT85;35474;51.032;6.998;2022-10-20T08:21:24;13.40;77.52
52656;SHT85;35474;51.032;6.998;2022-10-20T08:23:51;13.46;77.49
52656;SHT85;35474;51.032;6.998;2022-10-20T08:26:21;13.47;77.52
52656;SHT85;35474;51.032;6.998;2022-10-20T08:28:51;13.56;77.24
52656;SHT85;35474;51.032;6.998;2022-10-20T08:31:19;13.58;77.28
52656;SHT85;35474;51.032;6.998;2022-10-20T08:33:46;13.65;77.10
52656;SHT85;35474;51.032;6.998;2022-10-20T08:36:17;13.63;77.05
52656;SHT85;35474;51.032;6.998;2022-10-20T08:38:44;13.67;77.11
52656;SHT85;35474;51.032;6.998;2022-10-20T08:41:15;13.68;76.99
52656;SHT85;35474;51.032;6.998;2022-10-20T08:43:44;13.74;77.05
52656;SHT85;35474;51.032;6.998;2022-10-20T08:46:14;13.77;76.94
52656;SHT85;35474;51.032;6.998;2022-10-20T08:48:48;13.74;77.01
52656;SHT85;35474;51.032;6.998;2022-10-20T08:51:22;13.85;77.08
52656;SHT85;35474;51.032;6.998;2022-10-20T08:53:54;13.93;76.77
52656;SHT85;35474;51.032;6.998;2022-10-20T08:56:28;13.88;76.83
52656;SHT85;35474;51.032;6.998;2022-10-20T08:58:58;13.84;77.14
52656;SHT85;35474;51.032;6.998;2022-10-20T09:01:29;13.85;77.00
52656;SHT85;35474;51.032;6.998;2022-10-20T09:04:03;13.91;77.05
52656;SHT85;35474;51.032;6.998;2022-10-20T09:06:40;13.75;77.61
52656;SHT85;35474;51.032;6.998;2022-10-20T09:09:12;13.83;77.54
52656;SHT85;35474;51.032;6.998;2022-10-20T09:11:42;13.88;77.43
52656;SHT85;35474;51.032;6.998;2022-10-20T09:14:09;13.85;77.45
52656;SHT85;35474;51.032;6.998;2022-10-20T09:16:38;13.85;77.25
52656;SHT85;35474;51.032;6.998;2022-10-20T09:19:25;13.83;77.35
52656;SHT85;35474;51.032;6.998;2022-10-20T09:21:53;13.93;77.15
52656;SHT85;35474;51.032;6.998;2022-10-20T09:24:22;13.87;77.01
52656;SHT85;35474;51.032;6.998;2022-10-20T09:26:52;14.02;77.21
52656;SHT85;35474;51.032;6.998;2022-10-20T09:29:36;13.97;77.09
52656;SHT85;35474;51.032;6.998;2022-10-20T09:32:09;13.98;77.15
52656;SHT85;35474;51.032;6.998;2022-10-20T09:35:11;14.05;77.19
52656;SHT85;35474;51.032;6.998;2022-10-20T09:37:46;14.02;77.20
52656;SHT85;35474;51.032;6.998;2022-10-20T09:40:18;14.06;77.10
52656;SHT85;35474;51.032;6.998;2022-10-20T09:42:49;14.23;76.64
52656;SHT85;35474;51.032;6.998;2022-10-20T09:45:21;14.19;76.33
52656;SHT85;35474;51.032;6.998;2022-10-20T09:47:55;14.12;76.67
52656;SHT85;35474;51.032;6.998;2022-10-20T09:50:34;14.14;76.82
52656;SHT85;35474;51.032;6.998;2022-10-20T09:53:05;14.18;76.96
52656;SHT85;35474;51.032;6.998;2022-10-20T09:55:44;14.09;77.06
52656;SHT85;35474;51.032;6.998;2022-10-20T09:58:46;14.06;77.76
52656;SHT85;35474;51.032;6.998;2022-10-20T10:01:06;14.12;77.55
52656;SHT85;35474;51.032;6.998;2022-10-20T10:03:41;14.16;77.12
52656;SHT85;35474;51.032;6.998;2022-10-20T10:06:20;14.14;76.75
52656;SHT85;35474;51.032;6.998;2022-10-20T10:08:46;14.11;76.95
52656;SHT85;35474;51.032;6.998;2022-10-20T10:11:17;14.02;77.45
52656;SHT85;35474;51.032;6.998;2022-10-20T10:13:47;13.53;81.50
52656;SHT85;35474;51.032;6.998;2022-10-20T10:16:16;13.25;82.62
52656;SHT85;35474;51.032;6.998;2022-10-20T10:18:46;13.23;82.83
52656;SHT85;35474;51.032;6.998;2022-10-20T10:21:22;13.06;82.89
52656;SHT85;35474;51.032;6.998;2022-10-20T10:23:58;13.22;83.11
52656;SHT85;35474;51.032;6.998;2022-10-20T10:26:37;13.25;82.70
52656;SHT85;35474;51.032;6.998;2022-10-20T10:29:19;13.29;83.36
52656;SHT85;35474;51.032;6.998;2022-10-20T10:34:31;13.19;84.29
52656;SHT85;35474;51.032;6.998;2022-10-20T10:37:04;13.13;83.66
52656;SHT85;35474;51.032;6.998;2022-10-20T10:39:31;13.06;84.49
52656;SHT85;35474;51.032;6.998;2022-10-20T10:45:16;12.91;85.87
52656;SHT85;35474;51.032;6.998;2022-10-20T10:48:08;12.81;86.89
52656;SHT85;35474;51.032;6.998;2022-10-20T10:50:59;12.69;87.94
52656;SHT85;35474;51.032;6.998;2022-10-20T10:56:31;12.78;89.06
52656;SHT85;35474;51.032;6.998;2022-10-20T11:16:00;12.82;88.77
52656;SHT85;35474;51.032;6.998;2022-10-20T11:18:43;12.82;88.95
52656;SHT85;35474;51.032;6.998;2022-10-20T11:24:22;12.78;89.70
52656;SHT85;35474;51.032;6.998;2022-10-20T11:27:13;12.68;90.27
52656;SHT85;35474;51.032;6.998;2022-10-20T11:29:47;12.61;90.65
52656;SHT85;35474;51.032;6.998;2022-10-20T11:32:18;12.63;90.71
52656;SHT85;35474;51.032;6.998;2022-10-20T11:34:53;12.63;90.78
52656;SHT85;35474;51.032;6.998;2022-10-20T11:37:28;12.58;90.95
52656;SHT85;35474;51.032;6.998;2022-10-20T11:53:38;12.47;92.42
52656;SHT85;35474;51.032;6.998;2022-10-20T11:59:07;12.43;92.72
52656;SHT85;35474;51.032;6.998;2022-10-20T12:07:40;12.50;92.77
52656;SHT85;35474;51.032;6.998;2022-10-20T12:15:30;12.58;93.05
52656;SHT85;35474;51.032;6.998;2022-10-20T12:17:59;12.60;93.19
52656;SHT85;35474;51.032;6.998;2022-10-20T12:23:03;12.53;93.35
52656;SHT85;35474;51.032;6.998;2022-10-20T12:31:01;12.60;93.78
52656;SHT85;35474;51.032;6.998;2022-10-20T12:33:37;12.53;93.69
52656;SHT85;35474;51.032;6.998;2022-10-20T12:36:22;12.57;93.89
52656;SHT85;35474;51.032;6.998;2022-10-20T12:42:15;12.47;94.04
52656;SHT85;35474;51.032;6.998;2022-10-20T12:44:41;12.50;94.33
52656;SHT85;35474;51.032;6.998;2022-10-20T12:47:08;12.57;94.13
52656;SHT85;35474;51.032;6.998;2022-10-20T12:49:41;12.61;94.30
52656;SHT85;35474;51.032;6.998;2022-10-20T12:52:21;12.65;94.45
52656;SHT85;35474;51.032;6.998;2022-10-20T12:55:02;12.71;94.46
52656;SHT85;35474;51.032;6.998;2022-10-20T12:57:31;12.79;94.53
52656;SHT85;35474;51.032;6.998;2022-10-20T13:00:04;12.82;94.54
52656;SHT85;35474;51.032;6.998;2022-10-20T13:02:42;12.88;94.30
52656;SHT85;35474;51.032;6.998;2022-10-20T13:10:27;13.06;93.61
52656;SHT85;35474;51.032;6.998;2022-10-20T13:17:59;13.27;92.55
52656;SHT85;35474;51.032;6.998;2022-10-20T13:28:46;13.54;91.94
52656;SHT85;35474;51.032;6.998;2022-10-20T13:31:25;13.53;91.73
52656;SHT85;35474;51.032;6.998;2022-10-20T13:34:14;13.57;91.62
52656;SHT85;35474;51.032;6.998;2022-10-20T13:42:32;13.64;91.55
52656;SHT85;35474;51.032;6.998;2022-10-20T13:48:22;13.68;91.26
52656;SHT85;35474;51.032;6.998;2022-10-20T13:51:18;13.68;90.98
52656;SHT85;35474;51.032;6.998;2022-10-20T13:53:52;13.81;90.60
52656;SHT85;35474;51.032;6.998;2022-10-20T13:56:33;13.95;90.24
52656;SHT85;35474;51.032;6.998;2022-10-20T13:59:15;14.43;88.64
52656;SHT85;35474;51.032;6.998;2022-10-20T14:01:47;14.73;87.62
52656;SHT85;35474;51.032;6.998;2022-10-20T14:06:54;14.87;86.40
52656;SHT85;35474;51.032;6.998;2022-10-20T14:09:22;14.93;86.48
52656;SHT85;35474;51.032;6.998;2022-10-20T14:12:02;15.10;85.61
52656;SHT85;35474;51.032;6.998;2022-10-20T14:14:46;15.39;85.28
52656;SHT85;35474;51.032;6.998;2022-10-20T14:17:17;15.46;84.53
52656;SHT85;35474;51.032;6.998;2022-10-20T14:19:46;15.18;84.61
52656;SHT85;35474;51.032;6.998;2022-10-20T14:24:43;15.14;85.08
52656;SHT85;35474;51.032;6.998;2022-10-20T14:27:14;15.34;84.89
52656;SHT85;35474;51.032;6.998;2022-10-20T14:29:45;15.24;84.47
52656;SHT85;35474;51.032;6.998;2022-10-20T14:32:17;15.28;84.55
52656;SHT85;35474;51.032;6.998;2022-10-20T14:34:56;15.22;84.47
52656;SHT85;35474;51.032;6.998;2022-10-20T14:37:35;15.42;84.52
52656;SHT85;35474;51.032;6.998;2022-10-20T14:40:06;15.43;84.28
52656;SHT85;35474;51.032;6.998;2022-10-20T14:42:43;15.43;83.83
52656;SHT85;35474;51.032;6.998;2022-10-20T14:45:23;15.65;83.17
52656;SHT85;35474;51.032;6.998;2022-10-20T14:47:51;15.74;82.91
52656;SHT85;35474;51.032;6.998;2022-10-20T14:52:56;15.21;84.73
52656;SHT85;35474;51.032;6.998;2022-10-20T14:55:32;14.98;85.05
52656;SHT85;35474;51.032;6.998;2022-10-20T14:58:02;14.74;86.11
52656;SHT85;35474;51.032;6.998;2022-10-20T15:00:33;14.70;86.74
52656;SHT85;35474;51.032;6.998;2022-10-20T15:03:03;14.57;87.01
52656;SHT85;35474;51.032;6.998;2022-10-20T15:05:33;14.55;87.05
52656;SHT85;35474;51.032;6.998;2022-10-20T15:08:06;14.43;87.34
52656;SHT85;35474;51.032;6.998;2022-10-20T15:10:35;14.40;87.59
52656;SHT85;35474;51.032;6.998;2022-10-20T15:13:03;14.32;87.71
52656;SHT85;35474;51.032;6.998;2022-10-20T15:15:36;14.29;88.18
52656;SHT85;35474;51.032;6.998;2022-10-20T15:18:14;14.25;88.22
52656;SHT85;35474;51.032;6.998;2022-10-20T15:20:43;14.28;88.23
52656;SHT85;35474;51.032;6.998;2022-10-20T15:23:29;14.29;88.08
52656;SHT85;35474;51.032;6.998;2022-10-20T15:26:00;14.37;87.79
52656;SHT85;35474;51.032;6.998;2022-10-20T15:33:38;14.33;88.20
52656;SHT85;35474;51.032;6.998;2022-10-20T15:36:12;14.29;88.38
52656;SHT85;35474;51.032;6.998;2022-10-20T15:38:46;14.25;88.50
52656;SHT85;35474;51.032;6.998;2022-10-20T15:41:22;14.23;88.51
52656;SHT85;35474;51.032;6.998;2022-10-20T15:43:50;14.19;88.51
52656;SHT85;35474;51.032;6.998;2022-10-20T15:46:18;14.16;88.81
52656;SHT85;35474;51.032;6.998;2022-10-20T15:48:45;14.14;88.91
52656;SHT85;35474;51.032;6.998;2022-10-20T15:51:22;14.05;89.18
52656;SHT85;35474;51.032;6.998;2022-10-20T15:53:51;14.01;89.45
52656;SHT85;35474;51.032;6.998;2022-10-20T15:56:17;14.02;89.23
52656;SHT85;35474;51.032;6.998;2022-10-20T15:58:45;14.01;89.35
52656;SHT85;35474;51.032;6.998;2022-10-20T16:01:13;14.00;89.29
52656;SHT85;35474;51.032;6.998;2022-10-20T16:03:41;13.93;89.45
52656;SHT85;35474;51.032;6.998;2022-10-20T16:06:09;13.88;89.82
52656;SHT85;35474;51.032;6.998;2022-10-20T16:08:39;13.85;89.86
52656;SHT85;35474;51.032;6.998;2022-10-20T16:11:06;13.87;89.80
52656;SHT85;35474;51.032;6.998;2022-10-20T16:13:33;13.84;89.84
52656;SHT85;35474;51.032;6.998;2022-10-20T16:16:00;13.81;89.94
52656;SHT85;35474;51.032;6.998;2022-10-20T16:18:27;13.83;90.02
52656;SHT85;35474;51.032;6.998;2022-10-20T16:20:56;13.81;89.96
52656;SHT85;35474;51.032;6.998;2022-10-20T16:23:23;13.78;90.14
52656;SHT85;35474;51.032;6.998;2022-10-20T16:25:49;13.78;90.01
52656;SHT85;35474;51.032;6.998;2022-10-20T16:28:16;13.75;90.07
52656;SHT85;35474;51.032;6.998;2022-10-20T16:30:44;13.71;90.10
52656;SHT85;35474;51.032;6.998;2022-10-20T16:33:11;13.74;90.08
52656;SHT85;35474;51.032;6.998;2022-10-20T16:35:40;13.74;90.15
52656;SHT85;35474;51.032;6.998;2022-10-20T16:38:08;13.74;90.21
52656;SHT85;35474;51.032;6.998;2022-10-20T16:40:35;13.78;90.24
52656;SHT85;35474;51.032;6.998;2022-10-20T16:43:01;13.74;90.23
52656;SHT85;35474;51.032;6.998;2022-10-20T16:45:28;13.68;90.32
52656;SHT85;35474;51.032;6.998;2022-10-20T16:47:54;13.77;90.16
52656;SHT85;35474;51.032;6.998;2022-10-20T16:50:21;13.77;90.18
52656;SHT85;35474;51.032;6.998;2022-10-20T16:52:47;13.74;90.30
52656;SHT85;35474;51.032;6.998;2022-10-20T16:55:14;13.80;90.08
52656;SHT85;35474;51.032;6.998;2022-10-20T16:57:40;13.80;90.04
52656;SHT85;35474;51.032;6.998;2022-10-20T17:00:07;13.78;90.08
52656;SHT85;35474;51.032;6.998;2022-10-20T17:02:37;13.75;90.17
52656;SHT85;35474;51.032;6.998;2022-10-20T17:05:03;13.71;90.44
52656;SHT85;35474;51.032;6.998;2022-10-20T17:07:34;13.71;90.42
52656;SHT85;35474;51.032;6.998;2022-10-20T17:10:01;13.74;90.53
52656;SHT85;35474;51.032;6.998;2022-10-20T17:12:31;13.73;90.62
52656;SHT85;35474;51.032;6.998;2022-10-20T17:14:57;13.75;90.50
52656;SHT85;35474;51.032;6.998;2022-10-20T17:17:24;13.75;90.44
52656;SHT85;35474;51.032;6.998;2022-10-20T17:19:50;13.80;90.37
52656;SHT85;35474;51.032;6.998;2022-10-20T17:22:16;13.78;90.47
52656;SHT85;35474;51.032;6.998;2022-10-20T17:24:43;13.85;90.34
52656;SHT85;35474;51.032;6.998;2022-10-20T17:27:09;13.84;90.15
52656;SHT85;35474;51.032;6.998;2022-10-20T17:29:38;13.93;89.96
52656;SHT85;35474;51.032;6.998;2022-10-20T17:32:05;13.91;90.04
52656;SHT85;35474;51.032;6.998;2022-10-20T17:34:31;13.87;90.06
52656;SHT85;35474;51.032;6.998;2022-10-20T17:36:58;13.90;90.08
52656;SHT85;35474;51.032;6.998;2022-10-20T17:39:24;13.87;90.12
52656;SHT85;35474;51.032;6.998;2022-10-20T17:41:51;13.90;90.18
52656;SHT85;35474;51.032;6.998;2022-10-20T17:44:17;13.88;90.09
52656;SHT85;35474;51.032;6.998;2022-10-20T17:46:44;13.88;90.20
52656;SHT85;35474;51.032;6.998;2022-10-20T17:49:10;13.85;90.33
52656;SHT85;35474;51.032;6.998;2022-10-20T17:51:37;13.85;90.31
52656;SHT85;35474;51.032;6.998;2022-10-20T17:57:33;13.83;90.36
52656;SHT85;35474;51.032;6.998;2022-10-20T18:00:00;13.75;90.53
52656;SHT85;35474;51.032;6.998;2022-10-20T18:02:34;13.78;90.64
52656;SHT85;35474;51.032;6.998;2022-10-20T18:05:02;13.84;90.47